sensor_id;sensor_type;location;lat;lon;timestamp;pressure;altitude;pressure_sealevel;temperature;humidity
68474;BME280;55461;52.066;5.194;2022-12-26T00:02:33;100945.0;;;10.35;100.0
68474;BME280;55461;52.066;5.194;2022-12-26T00:04:10;100943.0;;;10.39;100.0
68474;BME280;55461;52.066;5.194;2022-12-26T00:05:46;100950.0;;;10.41;100.0
68474;BME280;55461;52.066;5.194;2022-12-26T00:09:00;100953.0;;;10.29;100.0
68474;BME280;55461;52.066;5.194;2022-12-26T00:10:39;100955.0;;;10.39;100.0
68474;BME280;55461;52.066;5.194;2022-12-26T00:13:53;100956.0;;;10.37;100.0
68474;BME280;55461;52.066;5.194;2022-12-26T00:17:06;100951.0;;;10.41;100.0
68474;BME280;55461;52.066;5.194;2022-12-26T00:18:43;100949.0;;;10.42;100.0
68474;BME280;55461;52.066;5.194;2022-12-26T00:20:19;100950.0;;;10.27;100.0
68474;BME280;55461;52.066;5.194;2022-12-26T00:23:31;100956.0;;;10.23;100.0
68474;BME280;55461;52.066;5.194;2022-12-26T00:25:09;100965.0;;;10.27;100.0
68474;BME280;55461;52.066;5.194;2022-12-26T00:26:46;100970.0;;;10.22;100.0
68474;BME280;55461;52.066;5.194;2022-12-26T00:29:58;100970.0;;;10.14;100.0
68474;BME280;55461;52.066;5.194;2022-12-26T00:31:34;100976.0;;;10.14;100.0
68474;BME280;55461;52.066;5.194;2022-12-26T00:33:10;100985.0;;;10.15;100.0
68474;BME280;55461;52.066;5.194;2022-12-26T00:36:24;100986.0;;;10.18;100.0
68474;BME280;55461;52.066;5.194;2022-12-26T00:38:02;100983.0;;;10.14;100.0
68474;BME280;55461;52.066;5.194;2022-12-26T00:39:38;100983.0;;;10.17;100.0
68474;BME280;55461;52.066;5.194;2022-12-26T00:41:16;100982.0;;;9.94;100.0
68474;BME280;55461;52.066;5.194;2022-12-26T00:44:29;100984.0;;;10.11;100.0
68474;BME280;55461;52.066;5.194;2022-12-26T00:46:05;100982.0;;;9.99;100.0
68474;BME280;55461;52.066;5.194;2022-12-26T00:47:42;100982.0;;;10.02;100.0
68474;BME280;55461;52.066;5.194;2022-12-26T00:50:55;100985.0;;;10.0;100.0
68474;BME280;55461;52.066;5.194;2022-12-26T00:52:32;100987.0;;;9.96;100.0
68474;BME280;55461;52.066;5.194;2022-12-26T00:54:08;100987.0;;;9.96;100.0
68474;BME280;55461;52.066;5.194;2022-12-26T00:55:44;100984.0;;;9.98;100.0
68474;BME280;55461;52.066;5.194;2022-12-26T00:58:56;100986.0;;;10.05;100.0
68474;BME280;55461;52.066;5.194;2022-12-26T01:00:33;100991.0;;;10.06;100.0
68474;BME280;55461;52.066;5.194;2022-12-26T01:02:10;100993.0;;;10.03;100.0
68474;BME280;55461;52.066;5.194;2022-12-26T01:05:27;100992.0;;;10.13;100.0
68474;BME280;55461;52.066;5.194;2022-12-26T01:07:04;100991.0;;;10.09;100.0
68474;BME280;55461;52.066;5.194;2022-12-26T01:08:40;100992.0;;;10.11;100.0
68474;BME280;55461;52.066;5.194;2022-12-26T01:11:54;100982.0;;;10.11;100.0
68474;BME280;55461;52.066;5.194;2022-12-26T01:13:31;100982.0;;;9.98;100.0
68474;BME280;55461;52.066;5.194;2022-12-26T01:15:08;100980.0;;;10.06;100.0
68474;BME280;55461;52.066;5.194;2022-12-26T01:16:45;100980.0;;;10.06;100.0
68474;BME280;55461;52.066;5.194;2022-12-26T01:19:58;100987.0;;;10.03;100.0
68474;BME280;55461;52.066;5.194;2022-12-26T01:23:12;100988.0;;;10.18;100.0
68474;BME280;55461;52.066;5.194;2022-12-26T01:26:28;100980.0;;;10.13;100.0
68474;BME280;55461;52.066;5.194;2022-12-26T01:28:04;100980.0;;;10.08;100.0
68474;BME280;55461;52.066;5.194;2022-12-26T01:29:40;100976.0;;;10.21;100.0
68474;BME280;55461;52.066;5.194;2022-12-26T01:32:53;100980.0;;;10.19;100.0
68474;BME280;55461;52.066;5.194;2022-12-26T01:34:30;100982.0;;;10.21;100.0
68474;BME280;55461;52.066;5.194;2022-12-26T01:36:06;100982.0;;;10.09;100.0
68474;BME280;55461;52.066;5.194;2022-12-26T01:37:43;100977.0;;;10.14;100.0
68474;BME280;55461;52.066;5.194;2022-12-26T01:40:57;100972.0;;;10.22;100.0
68474;BME280;55461;52.066;5.194;2022-12-26T01:42:36;100977.0;;;10.14;100.0
68474;BME280;55461;52.066;5.194;2022-12-26T01:45:32;100982.0;;;10.06;100.0
68474;BME280;55461;52.066;5.194;2022-12-26T01:47:52;100981.0;;;10.02;100.0
68474;BME280;55461;52.066;5.194;2022-12-26T01:49:33;100980.0;;;10.01;100.0
68474;BME280;55461;52.066;5.194;2022-12-26T01:51:12;100988.0;;;10.16;100.0
68474;BME280;55461;52.066;5.194;2022-12-26T01:52:50;100989.0;;;9.99;100.0
68474;BME280;55461;52.066;5.194;2022-12-26T01:54:29;100990.0;;;10.08;100.0
68474;BME280;55461;52.066;5.194;2022-12-26T01:57:54;100987.0;;;9.98;100.0
68474;BME280;55461;52.066;5.194;2022-12-26T01:59:35;100996.0;;;9.86;100.0
68474;BME280;55461;52.066;5.194;2022-12-26T02:01:13;100990.0;;;10.03;100.0
68474;BME280;55461;52.066;5.194;2022-12-26T02:02:50;100994.0;;;10.0;100.0
68474;BME280;55461;52.066;5.194;2022-12-26T02:06:20;100992.0;;;10.08;100.0
68474;BME280;55461;52.066;5.194;2022-12-26T02:07:57;100992.0;;;9.83;100.0
68474;BME280;55461;52.066;5.194;2022-12-26T02:09:33;100981.0;;;9.85;100.0
68474;BME280;55461;52.066;5.194;2022-12-26T02:11:13;100988.0;;;9.91;100.0
68474;BME280;55461;52.066;5.194;2022-12-26T02:14:29;100991.0;;;10.07;100.0
68474;BME280;55461;52.066;5.194;2022-12-26T02:16:09;100985.0;;;9.98;100.0
68474;BME280;55461;52.066;5.194;2022-12-26T02:17:47;100985.0;;;10.11;100.0
68474;BME280;55461;52.066;5.194;2022-12-26T02:21:39;100977.0;;;10.16;100.0
68474;BME280;55461;52.066;5.194;2022-12-26T02:23:49;100975.0;;;10.17;100.0
68474;BME280;55461;52.066;5.194;2022-12-26T02:27:00;100977.0;;;10.01;100.0
68474;BME280;55461;52.066;5.194;2022-12-26T02:33:43;100980.0;;;9.94;100.0
68474;BME280;55461;52.066;5.194;2022-12-26T02:35:32;100981.0;;;10.11;100.0
68474;BME280;55461;52.066;5.194;2022-12-26T02:37:29;100976.0;;;10.14;100.0
68474;BME280;55461;52.066;5.194;2022-12-26T02:39:27;100974.0;;;10.01;100.0
68474;BME280;55461;52.066;5.194;2022-12-26T02:41:18;100970.0;;;10.07;100.0
68474;BME280;55461;52.066;5.194;2022-12-26T02:43:09;100980.0;;;9.94;100.0
68474;BME280;55461;52.066;5.194;2022-12-26T02:44:51;100981.0;;;9.98;100.0
68474;BME280;55461;52.066;5.194;2022-12-26T02:48:23;100980.0;;;10.05;100.0
68474;BME280;55461;52.066;5.194;2022-12-26T02:50:09;100976.0;;;9.85;100.0
68474;BME280;55461;52.066;5.194;2022-12-26T02:51:58;100982.0;;;9.88;100.0
68474;BME280;55461;52.066;5.194;2022-12-26T02:53:46;100980.0;;;9.78;100.0
68474;BME280;55461;52.066;5.194;2022-12-26T02:55:31;100983.0;;;9.88;100.0
68474;BME280;55461;52.066;5.194;2022-12-26T02:58:58;100978.0;;;9.85;100.0
68474;BME280;55461;52.066;5.194;2022-12-26T03:00:38;100975.0;;;9.94;100.0
68474;BME280;55461;52.066;5.194;2022-12-26T03:02:24;100980.0;;;9.93;100.0
68474;BME280;55461;52.066;5.194;2022-12-26T03:04:04;100975.0;;;10.05;100.0
68474;BME280;55461;52.066;5.194;2022-12-26T03:05:49;100974.0;;;9.98;100.0
68474;BME280;55461;52.066;5.194;2022-12-26T03:07:32;100971.0;;;10.06;100.0
68474;BME280;55461;52.066;5.194;2022-12-26T03:10:54;100974.0;;;9.98;100.0
68474;BME280;55461;52.066;5.194;2022-12-26T03:12:38;100973.0;;;9.85;100.0
68474;BME280;55461;52.066;5.194;2022-12-26T03:14:25;100973.0;;;9.65;100.0
68474;BME280;55461;52.066;5.194;2022-12-26T03:16:08;100976.0;;;9.69;100.0
68474;BME280;55461;52.066;5.194;2022-12-26T03:19:27;100977.0;;;9.77;100.0
68474;BME280;55461;52.066;5.194;2022-12-26T03:21:07;100982.0;;;9.71;100.0
68474;BME280;55461;52.066;5.194;2022-12-26T03:22:46;100988.0;;;9.74;100.0
68474;BME280;55461;52.066;5.194;2022-12-26T03:24:27;100990.0;;;9.74;100.0
68474;BME280;55461;52.066;5.194;2022-12-26T03:27:46;100991.0;;;9.6;100.0
68474;BME280;55461;52.066;5.194;2022-12-26T03:29:23;100998.0;;;9.55;100.0
68474;BME280;55461;52.066;5.194;2022-12-26T03:31:04;100992.0;;;9.71;100.0
68474;BME280;55461;52.066;5.194;2022-12-26T03:32:41;100995.0;;;9.71;100.0
68474;BME280;55461;52.066;5.194;2022-12-26T03:35:55;100993.0;;;9.63;100.0
68474;BME280;55461;52.066;5.194;2022-12-26T03:37:40;100997.0;;;9.68;100.0
68474;BME280;55461;52.066;5.194;2022-12-26T03:39:30;101001.0;;;9.68;100.0
68474;BME280;55461;52.066;5.194;2022-12-26T03:41:16;101000.0;;;9.77;100.0
68474;BME280;55461;52.066;5.194;2022-12-26T03:44:52;100999.0;;;9.72;100.0
68474;BME280;55461;52.066;5.194;2022-12-26T03:46:49;100993.0;;;9.81;100.0
68474;BME280;55461;52.066;5.194;2022-12-26T03:48:32;100990.0;;;9.68;100.0
68474;BME280;55461;52.066;5.194;2022-12-26T03:50:14;100988.0;;;9.82;100.0
68474;BME280;55461;52.066;5.194;2022-12-26T03:52:05;100993.0;;;9.68;100.0
68474;BME280;55461;52.066;5.194;2022-12-26T03:53:48;100989.0;;;9.75;100.0
68474;BME280;55461;52.066;5.194;2022-12-26T03:57:19;100993.0;;;9.77;100.0
68474;BME280;55461;52.066;5.194;2022-12-26T03:59:03;100986.0;;;9.72;100.0
68474;BME280;55461;52.066;5.194;2022-12-26T04:00:44;100987.0;;;9.52;100.0
68474;BME280;55461;52.066;5.194;2022-12-26T04:02:24;100983.0;;;9.77;100.0
68474;BME280;55461;52.066;5.194;2022-12-26T04:05:45;100986.0;;;9.6;100.0
68474;BME280;55461;52.066;5.194;2022-12-26T04:07:27;100977.0;;;9.57;100.0
68474;BME280;55461;52.066;5.194;2022-12-26T04:09:11;100976.0;;;9.56;100.0
68474;BME280;55461;52.066;5.194;2022-12-26T04:10:56;100972.0;;;9.46;100.0
68474;BME280;55461;52.066;5.194;2022-12-26T04:12:35;100971.0;;;9.51;100.0
68474;BME280;55461;52.066;5.194;2022-12-26T04:16:17;100977.0;;;9.49;100.0
68474;BME280;55461;52.066;5.194;2022-12-26T04:17:57;100982.0;;;9.46;100.0
68474;BME280;55461;52.066;5.194;2022-12-26T04:19:53;100991.0;;;9.53;100.0
68474;BME280;55461;52.066;5.194;2022-12-26T04:21:53;100990.0;;;9.33;100.0
68474;BME280;55461;52.066;5.194;2022-12-26T04:23:39;100990.0;;;9.47;100.0
68474;BME280;55461;52.066;5.194;2022-12-26T04:25:20;100993.0;;;9.5;100.0
68474;BME280;55461;52.066;5.194;2022-12-26T04:28:38;100990.0;;;9.32;100.0
68474;BME280;55461;52.066;5.194;2022-12-26T04:30:14;100990.0;;;9.31;100.0
68474;BME280;55461;52.066;5.194;2022-12-26T04:31:57;100995.0;;;9.15;100.0
68474;BME280;55461;52.066;5.194;2022-12-26T04:33:42;100997.0;;;9.13;100.0
68474;BME280;55461;52.066;5.194;2022-12-26T04:35:30;101000.0;;;9.14;100.0
68474;BME280;55461;52.066;5.194;2022-12-26T04:38:58;101005.0;;;9.16;100.0
68474;BME280;55461;52.066;5.194;2022-12-26T04:40:42;101000.0;;;9.24;100.0
68474;BME280;55461;52.066;5.194;2022-12-26T04:42:24;101006.0;;;9.22;100.0
68474;BME280;55461;52.066;5.194;2022-12-26T04:44:03;101005.0;;;9.06;100.0
68474;BME280;55461;52.066;5.194;2022-12-26T04:47:18;101001.0;;;9.06;100.0
68474;BME280;55461;52.066;5.194;2022-12-26T04:48:55;100992.0;;;9.11;100.0
68474;BME280;55461;52.066;5.194;2022-12-26T04:50:32;100988.0;;;9.17;100.0
68474;BME280;55461;52.066;5.194;2022-12-26T04:52:10;100985.0;;;9.25;100.0
68474;BME280;55461;52.066;5.194;2022-12-26T04:55:25;100988.0;;;9.26;100.0
68474;BME280;55461;52.066;5.194;2022-12-26T04:57:02;100986.0;;;9.16;100.0
68474;BME280;55461;52.066;5.194;2022-12-26T04:58:38;100981.0;;;9.21;100.0
68474;BME280;55461;52.066;5.194;2022-12-26T05:01:52;100978.0;;;9.23;100.0
68474;BME280;55461;52.066;5.194;2022-12-26T05:03:28;100983.0;;;9.15;100.0
68474;BME280;55461;52.066;5.194;2022-12-26T05:05:05;100982.0;;;9.02;100.0
68474;BME280;55461;52.066;5.194;2022-12-26T05:08:24;100976.0;;;9.19;100.0
68474;BME280;55461;52.066;5.194;2022-12-26T05:10:03;100962.0;;;9.23;100.0
68474;BME280;55461;52.066;5.194;2022-12-26T05:11:41;100963.0;;;9.14;100.0
68474;BME280;55461;52.066;5.194;2022-12-26T05:13:17;100963.0;;;9.23;100.0
68474;BME280;55461;52.066;5.194;2022-12-26T05:16:30;100956.0;;;9.06;100.0
68474;BME280;55461;52.066;5.194;2022-12-26T05:18:07;100957.0;;;9.14;100.0
68474;BME280;55461;52.066;5.194;2022-12-26T05:19:43;100959.0;;;9.06;100.0
68474;BME280;55461;52.066;5.194;2022-12-26T05:22:59;100962.0;;;9.02;100.0
68474;BME280;55461;52.066;5.194;2022-12-26T05:24:39;100967.0;;;8.92;100.0
68474;BME280;55461;52.066;5.194;2022-12-26T05:26:19;100969.0;;;9.02;100.0
68474;BME280;55461;52.066;5.194;2022-12-26T05:27:56;100966.0;;;9.09;100.0
68474;BME280;55461;52.066;5.194;2022-12-26T05:31:09;100967.0;;;9.06;100.0
68474;BME280;55461;52.066;5.194;2022-12-26T05:32:47;100978.0;;;8.99;100.0
68474;BME280;55461;52.066;5.194;2022-12-26T05:34:23;100981.0;;;8.85;100.0
68474;BME280;55461;52.066;5.194;2022-12-26T05:37:35;100985.0;;;8.89;100.0
68474;BME280;55461;52.066;5.194;2022-12-26T05:39:12;100983.0;;;8.78;100.0
68474;BME280;55461;52.066;5.194;2022-12-26T05:40:49;100990.0;;;8.75;100.0
68474;BME280;55461;52.066;5.194;2022-12-26T05:42:26;100988.0;;;8.82;100.0
68474;BME280;55461;52.066;5.194;2022-12-26T05:45:39;100984.0;;;8.99;100.0
68474;BME280;55461;52.066;5.194;2022-12-26T05:47:15;100980.0;;;8.96;100.0
68474;BME280;55461;52.066;5.194;2022-12-26T05:48:52;100990.0;;;8.98;100.0
68474;BME280;55461;52.066;5.194;2022-12-26T05:52:04;100995.0;;;8.91;100.0
68474;BME280;55461;52.066;5.194;2022-12-26T05:53:40;100996.0;;;8.9;100.0
68474;BME280;55461;52.066;5.194;2022-12-26T05:55:16;100997.0;;;9.02;100.0
68474;BME280;55461;52.066;5.194;2022-12-26T05:58:30;100993.0;;;8.91;100.0
68474;BME280;55461;52.066;5.194;2022-12-26T06:01:44;100978.0;;;8.91;100.0
68474;BME280;55461;52.066;5.194;2022-12-26T06:03:20;100975.0;;;8.84;100.0
68474;BME280;55461;52.066;5.194;2022-12-26T06:06:32;100971.0;;;8.91;100.0
68474;BME280;55461;52.066;5.194;2022-12-26T06:08:09;100978.0;;;8.91;100.0
68474;BME280;55461;52.066;5.194;2022-12-26T06:09:45;100978.0;;;8.89;100.0
68474;BME280;55461;52.066;5.194;2022-12-26T06:12:59;100980.0;;;8.9;100.0
68474;BME280;55461;52.066;5.194;2022-12-26T06:14:37;100981.0;;;8.94;100.0
68474;BME280;55461;52.066;5.194;2022-12-26T06:16:15;100977.0;;;8.99;100.0
68474;BME280;55461;52.066;5.194;2022-12-26T06:17:53;100981.0;;;8.9;100.0
68474;BME280;55461;52.066;5.194;2022-12-26T06:21:08;100975.0;;;8.92;100.0
68474;BME280;55461;52.066;5.194;2022-12-26T06:22:45;100977.0;;;9.02;100.0
68474;BME280;55461;52.066;5.194;2022-12-26T06:24:21;100972.0;;;9.01;100.0
68474;BME280;55461;52.066;5.194;2022-12-26T06:27:34;100981.0;;;9.01;100.0
68474;BME280;55461;52.066;5.194;2022-12-26T06:29:11;100980.0;;;8.93;100.0
68474;BME280;55461;52.066;5.194;2022-12-26T06:30:48;100981.0;;;9.02;100.0
68474;BME280;55461;52.066;5.194;2022-12-26T06:34:01;100978.0;;;8.73;100.0
68474;BME280;55461;52.066;5.194;2022-12-26T06:35:37;100983.0;;;8.72;100.0
68474;BME280;55461;52.066;5.194;2022-12-26T06:37:14;100989.0;;;8.81;100.0
68474;BME280;55461;52.066;5.194;2022-12-26T06:38:51;100987.0;;;8.8;100.0
68474;BME280;55461;52.066;5.194;2022-12-26T06:42:05;100980.0;;;8.75;100.0
68474;BME280;55461;52.066;5.194;2022-12-26T06:43:41;100988.0;;;8.73;100.0
68474;BME280;55461;52.066;5.194;2022-12-26T06:45:18;100990.0;;;8.8;100.0
68474;BME280;55461;52.066;5.194;2022-12-26T06:48:30;100987.0;;;8.76;100.0
68474;BME280;55461;52.066;5.194;2022-12-26T06:50:08;100995.0;;;8.88;100.0
68474;BME280;55461;52.066;5.194;2022-12-26T06:51:46;100988.0;;;8.72;100.0
68474;BME280;55461;52.066;5.194;2022-12-26T06:55:00;100986.0;;;8.85;100.0
68474;BME280;55461;52.066;5.194;2022-12-26T06:56:36;100988.0;;;8.74;100.0
68474;BME280;55461;52.066;5.194;2022-12-26T06:58:12;100992.0;;;8.93;100.0
68474;BME280;55461;52.066;5.194;2022-12-26T07:01:26;100987.0;;;8.86;100.0
68474;BME280;55461;52.066;5.194;2022-12-26T07:03:03;100985.0;;;8.86;100.0
68474;BME280;55461;52.066;5.194;2022-12-26T07:04:39;100994.0;;;8.89;100.0
68474;BME280;55461;52.066;5.194;2022-12-26T07:06:20;100989.0;;;8.98;100.0
68474;BME280;55461;52.066;5.194;2022-12-26T07:09:36;100989.0;;;8.91;100.0
68474;BME280;55461;52.066;5.194;2022-12-26T07:11:12;100993.0;;;9.03;100.0
68474;BME280;55461;52.066;5.194;2022-12-26T07:12:49;100986.0;;;8.98;100.0
68474;BME280;55461;52.066;5.194;2022-12-26T07:14:25;100984.0;;;9.02;100.0
68474;BME280;55461;52.066;5.194;2022-12-26T07:17:37;100983.0;;;8.85;100.0
68474;BME280;55461;52.066;5.194;2022-12-26T07:19:14;100978.0;;;8.89;100.0
68474;BME280;55461;52.066;5.194;2022-12-26T07:20:51;100977.0;;;8.81;100.0
68474;BME280;55461;52.066;5.194;2022-12-26T07:24:04;100986.0;;;8.89;100.0
68474;BME280;55461;52.066;5.194;2022-12-26T07:25:40;100980.0;;;8.74;100.0
68474;BME280;55461;52.066;5.194;2022-12-26T07:27:17;100991.0;;;8.89;100.0
68474;BME280;55461;52.066;5.194;2022-12-26T07:30:30;100985.0;;;8.83;100.0
68474;BME280;55461;52.066;5.194;2022-12-26T07:32:06;100984.0;;;8.8;100.0
68474;BME280;55461;52.066;5.194;2022-12-26T07:33:45;100980.0;;;8.73;100.0
68474;BME280;55461;52.066;5.194;2022-12-26T07:35:22;100977.0;;;8.8;100.0
68474;BME280;55461;52.066;5.194;2022-12-26T07:38:34;100980.0;;;8.82;100.0
68474;BME280;55461;52.066;5.194;2022-12-26T07:40:11;100989.0;;;8.97;100.0
68474;BME280;55461;52.066;5.194;2022-12-26T07:41:47;100990.0;;;8.98;100.0
68474;BME280;55461;52.066;5.194;2022-12-26T07:45:01;100991.0;;;9.03;100.0
68474;BME280;55461;52.066;5.194;2022-12-26T07:46:37;100990.0;;;9.06;100.0
68474;BME280;55461;52.066;5.194;2022-12-26T07:48:13;100992.0;;;8.99;100.0
68474;BME280;55461;52.066;5.194;2022-12-26T07:51:26;100994.0;;;9.05;100.0
68474;BME280;55461;52.066;5.194;2022-12-26T07:53:03;100994.0;;;9.1;100.0
68474;BME280;55461;52.066;5.194;2022-12-26T07:54:39;101007.0;;;9.16;100.0
68474;BME280;55461;52.066;5.194;2022-12-26T07:56:15;100996.0;;;9.09;100.0
68474;BME280;55461;52.066;5.194;2022-12-26T07:59:28;100988.0;;;9.16;100.0
68474;BME280;55461;52.066;5.194;2022-12-26T08:01:05;100997.0;;;9.08;100.0
68474;BME280;55461;52.066;5.194;2022-12-26T08:02:42;101001.0;;;9.11;100.0
68474;BME280;55461;52.066;5.194;2022-12-26T08:05:55;100991.0;;;9.21;100.0
68474;BME280;55461;52.066;5.194;2022-12-26T08:07:31;100995.0;;;9.19;100.0
68474;BME280;55461;52.066;5.194;2022-12-26T08:09:11;101000.0;;;9.18;100.0
68474;BME280;55461;52.066;5.194;2022-12-26T08:12:33;100996.0;;;9.31;100.0
68474;BME280;55461;52.066;5.194;2022-12-26T08:14:11;100994.0;;;9.28;100.0
68474;BME280;55461;52.066;5.194;2022-12-26T08:15:47;101006.0;;;9.23;100.0
68474;BME280;55461;52.066;5.194;2022-12-26T08:17:23;101006.0;;;9.34;100.0
68474;BME280;55461;52.066;5.194;2022-12-26T08:20:37;101011.0;;;9.31;100.0
68474;BME280;55461;52.066;5.194;2022-12-26T08:22:13;101014.0;;;9.4;100.0
68474;BME280;55461;52.066;5.194;2022-12-26T08:23:49;101015.0;;;9.48;100.0
68474;BME280;55461;52.066;5.194;2022-12-26T08:27:03;101023.0;;;9.46;100.0
68474;BME280;55461;52.066;5.194;2022-12-26T08:28:40;101026.0;;;9.41;100.0
68474;BME280;55461;52.066;5.194;2022-12-26T08:30:16;101019.0;;;9.48;100.0
68474;BME280;55461;52.066;5.194;2022-12-26T08:31:52;101022.0;;;9.58;100.0
68474;BME280;55461;52.066;5.194;2022-12-26T08:35:05;101024.0;;;9.61;100.0
68474;BME280;55461;52.066;5.194;2022-12-26T08:36:42;101019.0;;;9.6;100.0
68474;BME280;55461;52.066;5.194;2022-12-26T08:38:18;101021.0;;;9.65;100.0
68474;BME280;55461;52.066;5.194;2022-12-26T08:41:30;101015.0;;;9.56;100.0
68474;BME280;55461;52.066;5.194;2022-12-26T08:43:07;101024.0;;;9.69;100.0
68474;BME280;55461;52.066;5.194;2022-12-26T08:44:43;101028.0;;;9.63;100.0
68474;BME280;55461;52.066;5.194;2022-12-26T08:47:57;101030.0;;;9.59;100.0
68474;BME280;55461;52.066;5.194;2022-12-26T08:49:34;101038.0;;;9.67;100.0
68474;BME280;55461;52.066;5.194;2022-12-26T08:51:12;101048.0;;;9.8;100.0
68474;BME280;55461;52.066;5.194;2022-12-26T08:52:49;101048.0;;;9.72;100.0
68474;BME280;55461;52.066;5.194;2022-12-26T08:56:02;101066.0;;;9.76;100.0
68474;BME280;55461;52.066;5.194;2022-12-26T08:57:39;101065.0;;;9.76;100.0
68474;BME280;55461;52.066;5.194;2022-12-26T08:59:16;101077.0;;;9.64;100.0
68474;BME280;55461;52.066;5.194;2022-12-26T09:02:28;101075.0;;;9.6;100.0
68474;BME280;55461;52.066;5.194;2022-12-26T09:04:04;101076.0;;;9.63;100.0
68474;BME280;55461;52.066;5.194;2022-12-26T09:05:41;101080.0;;;9.59;100.0
68474;BME280;55461;52.066;5.194;2022-12-26T09:08:54;101080.0;;;9.52;100.0
68474;BME280;55461;52.066;5.194;2022-12-26T09:10:30;101096.0;;;9.53;100.0
68474;BME280;55461;52.066;5.194;2022-12-26T09:12:06;101096.0;;;9.49;100.0
68474;BME280;55461;52.066;5.194;2022-12-26T09:13:43;101095.0;;;9.44;100.0
68474;BME280;55461;52.066;5.194;2022-12-26T09:16:57;101097.0;;;9.55;100.0
68474;BME280;55461;52.066;5.194;2022-12-26T09:18:33;101102.0;;;9.55;100.0
68474;BME280;55461;52.066;5.194;2022-12-26T09:20:10;101109.0;;;9.61;100.0
68474;BME280;55461;52.066;5.194;2022-12-26T09:23:25;101120.0;;;9.43;100.0
68474;BME280;55461;52.066;5.194;2022-12-26T09:25:01;101145.0;;;9.35;100.0
68474;BME280;55461;52.066;5.194;2022-12-26T09:26:38;101141.0;;;9.28;100.0
68474;BME280;55461;52.066;5.194;2022-12-26T09:28:14;101155.0;;;9.21;100.0
68474;BME280;55461;52.066;5.194;2022-12-26T09:31:29;101147.0;;;9.18;100.0
68474;BME280;55461;52.066;5.194;2022-12-26T09:33:06;101169.0;;;9.14;100.0
68474;BME280;55461;52.066;5.194;2022-12-26T09:34:42;101170.0;;;9.14;100.0
68474;BME280;55461;52.066;5.194;2022-12-26T09:37:56;101168.0;;;9.21;100.0
68474;BME280;55461;52.066;5.194;2022-12-26T09:39:33;101174.0;;;9.26;100.0
68474;BME280;55461;52.066;5.194;2022-12-26T09:41:25;101181.0;;;9.25;100.0
68474;BME280;55461;52.066;5.194;2022-12-26T09:43:14;101180.0;;;9.23;100.0
68474;BME280;55461;52.066;5.194;2022-12-26T09:45:04;101187.0;;;9.18;100.0
68474;BME280;55461;52.066;5.194;2022-12-26T09:48:38;101200.0;;;9.07;100.0
68474;BME280;55461;52.066;5.194;2022-12-26T09:50:25;101205.0;;;8.94;100.0
68474;BME280;55461;52.066;5.194;2022-12-26T09:52:19;101223.0;;;8.89;100.0
68474;BME280;55461;52.066;5.194;2022-12-26T09:53:59;101228.0;;;8.68;97.69
68474;BME280;55461;52.066;5.194;2022-12-26T09:55:44;101240.0;;;8.48;94.83
68474;BME280;55461;52.066;5.194;2022-12-26T09:59:15;101244.0;;;8.39;94.52
68474;BME280;55461;52.066;5.194;2022-12-26T10:00:57;101255.0;;;8.15;92.3
68474;BME280;55461;52.066;5.194;2022-12-26T10:02:41;101256.0;;;8.02;93.15
68474;BME280;55461;52.066;5.194;2022-12-26T10:04:21;101261.0;;;8.06;92.81
68474;BME280;55461;52.066;5.194;2022-12-26T10:06:07;101264.0;;;7.91;92.76
68474;BME280;55461;52.066;5.194;2022-12-26T10:09:40;101271.0;;;7.92;92.79
68474;BME280;55461;52.066;5.194;2022-12-26T10:11:55;101276.0;;;7.77;93.49
68474;BME280;55461;52.066;5.194;2022-12-26T10:13:37;101271.0;;;7.79;93.69
68474;BME280;55461;52.066;5.194;2022-12-26T10:15:30;101286.0;;;7.84;93.4
68474;BME280;55461;52.066;5.194;2022-12-26T10:17:19;101288.0;;;7.72;92.78
68474;BME280;55461;52.066;5.194;2022-12-26T10:19:15;101297.0;;;7.64;91.51
68474;BME280;55461;52.066;5.194;2022-12-26T10:21:22;101301.0;;;7.73;91.18
68474;BME280;55461;52.066;5.194;2022-12-26T10:23:17;101310.0;;;7.65;91.83
68474;BME280;55461;52.066;5.194;2022-12-26T10:25:24;101307.0;;;7.53;91.29
68474;BME280;55461;52.066;5.194;2022-12-26T10:27:08;101314.0;;;7.64;90.93
68474;BME280;55461;52.066;5.194;2022-12-26T10:30:34;101321.0;;;7.6;90.61
68474;BME280;55461;52.066;5.194;2022-12-26T10:32:17;101325.0;;;7.64;90.72
68474;BME280;55461;52.066;5.194;2022-12-26T10:34:04;101321.0;;;7.48;90.49
68474;BME280;55461;52.066;5.194;2022-12-26T10:35:47;101318.0;;;7.54;90.48
68474;BME280;55461;52.066;5.194;2022-12-26T10:37:26;101332.0;;;7.56;90.51
68474;BME280;55461;52.066;5.194;2022-12-26T10:40:58;101332.0;;;7.42;90.23
68474;BME280;55461;52.066;5.194;2022-12-26T10:42:40;101330.0;;;7.48;90.6
68474;BME280;55461;52.066;5.194;2022-12-26T10:44:17;101327.0;;;7.51;90.69
68474;BME280;55461;52.066;5.194;2022-12-26T10:46:11;101330.0;;;7.37;90.95
68474;BME280;55461;52.066;5.194;2022-12-26T10:49:01;101330.0;;;7.39;91.23
68474;BME280;55461;52.066;5.194;2022-12-26T10:50:42;101331.0;;;7.5;91.16
68474;BME280;55461;52.066;5.194;2022-12-26T10:52:26;101339.0;;;7.39;90.17
68474;BME280;55461;52.066;5.194;2022-12-26T10:55:48;101338.0;;;7.37;90.35
68474;BME280;55461;52.066;5.194;2022-12-26T10:57:27;101347.0;;;7.42;89.68
68474;BME280;55461;52.066;5.194;2022-12-26T10:59:12;101359.0;;;7.33;88.77
68474;BME280;55461;52.066;5.194;2022-12-26T11:00:52;101352.0;;;7.15;89.9
68474;BME280;55461;52.066;5.194;2022-12-26T11:02:30;101341.0;;;7.23;89.88
68474;BME280;55461;52.066;5.194;2022-12-26T11:05:54;101339.0;;;7.51;89.58
68474;BME280;55461;52.066;5.194;2022-12-26T11:07:43;101355.0;;;7.41;88.13
68474;BME280;55461;52.066;5.194;2022-12-26T11:09:33;101345.0;;;7.34;88.81
68474;BME280;55461;52.066;5.194;2022-12-26T11:11:19;101359.0;;;7.35;87.51
68474;BME280;55461;52.066;5.194;2022-12-26T11:12:59;101368.0;;;7.34;88.38
68474;BME280;55461;52.066;5.194;2022-12-26T11:16:22;101381.0;;;7.37;87.6
68474;BME280;55461;52.066;5.194;2022-12-26T11:18:16;101385.0;;;7.32;86.71
68474;BME280;55461;52.066;5.194;2022-12-26T11:20:16;101389.0;;;7.5;86.6
68474;BME280;55461;52.066;5.194;2022-12-26T11:22:14;101396.0;;;7.47;86.25
68474;BME280;55461;52.066;5.194;2022-12-26T11:24:15;101387.0;;;7.35;83.97
68474;BME280;55461;52.066;5.194;2022-12-26T11:25:54;101396.0;;;7.32;83.87